createdAt,value
2019-04-06T00:02:18.859Z,92634.27
2019-04-06T00:04:47.300Z,92625.23
2019-04-06T00:07:15.789Z,92629.47
2019-04-06T00:09:44.316Z,92615.91
2019-04-06T00:12:12.740Z,92617.86
2019-04-06T00:14:41.309Z,92618.83
2019-04-06T00:17:09.719Z,92613.00
2019-04-06T00:19:38.161Z,92609.13
2019-04-06T00:22:06.606Z,92574.64
2019-04-06T00:24:35.135Z,92584.31
2019-04-06T00:27:03.629Z,92605.55
2019-04-06T00:29:32.098Z,92605.55
2019-04-06T00:32:04.974Z,92610.06
2019-04-06T00:34:33.554Z,92615.52
2019-04-06T00:37:01.998Z,92615.52
2019-04-06T00:39:30.492Z,92617.31
2019-04-06T00:41:58.960Z,92617.31
2019-04-06T00:44:27.415Z,92610.38
2019-04-06T00:46:55.912Z,92613.63
2019-04-06T00:49:24.409Z,92598.17
2019-04-06T00:51:52.808Z,92598.17
2019-04-06T00:54:21.261Z,92616.81
2019-04-06T00:56:49.783Z,92614.27
2019-04-06T00:59:18.324Z,92609.45
2019-04-06T01:01:46.848Z,92617.16
2019-04-06T01:04:15.291Z,92605.47
2019-04-06T01:06:43.764Z,92617.47
2019-04-06T01:09:12.273Z,92614.88
2019-04-06T01:11:40.771Z,92613.58
2019-04-06T01:14:09.208Z,92613.27
2019-04-06T01:16:37.696Z,92597.17
2019-04-06T01:19:06.368Z,92624.25
2019-04-06T01:21:34.794Z,92606.22
2019-04-06T01:24:03.216Z,92606.56
2019-04-06T01:26:31.812Z,92606.56
2019-04-06T01:29:00.227Z,92624.94
2019-04-06T01:31:28.739Z,92601.09
2019-04-06T01:33:59.014Z,92618.66
2019-04-06T01:36:27.893Z,92624.30
2019-04-06T01:38:56.322Z,92615.28
2019-04-06T01:41:24.983Z,92591.13
2019-04-06T01:43:53.394Z,92592.05
2019-04-06T01:46:23.179Z,92592.05
2019-04-06T01:48:51.568Z,92588.50
2019-04-06T01:51:20.262Z,92589.31
2019-04-06T01:53:48.694Z,92587.52
2019-04-06T01:56:18.742Z,92583.59
2019-04-06T01:58:47.518Z,92583.59
2019-04-06T02:01:17.610Z,92584.92
2019-04-06T02:03:46.061Z,92548.66
2019-04-06T02:06:14.558Z,92579.08
2019-04-06T02:08:43.009Z,92574.70
2019-04-06T02:11:11.501Z,92574.70
2019-04-06T02:13:39.942Z,92575.80
2019-04-06T02:16:08.439Z,92580.02
2019-04-06T02:18:36.906Z,92578.06
2019-04-06T02:21:05.439Z,92578.08
2019-04-06T02:23:33.863Z,92550.36
2019-04-06T02:26:02.431Z,92550.36
2019-04-06T02:28:30.955Z,92572.28
2019-04-06T02:31:16.074Z,92571.00
2019-04-06T02:33:48.736Z,92575.97
2019-04-06T02:36:35.104Z,92574.95
2019-04-06T02:39:09.555Z,92576.91
2019-04-06T02:41:42.680Z,92573.68
2019-04-06T02:44:11.153Z,92576.60
2019-04-06T02:46:39.724Z,92574.97
2019-04-06T02:49:08.201Z,92579.50
2019-04-06T02:51:36.625Z,92579.50
2019-04-06T02:54:05.209Z,92584.97
2019-04-06T02:56:45.508Z,92588.53
2019-04-06T02:59:03.956Z,92586.91
2019-04-06T03:01:32.393Z,92586.58
2019-04-06T03:04:01.062Z,92583.38
2019-04-06T03:06:30.029Z,92571.13
2019-04-06T03:08:58.613Z,92584.67
2019-04-06T03:11:27.144Z,92590.79
2019-04-06T03:13:55.742Z,92590.79
2019-04-06T03:16:24.201Z,92596.58
2019-04-06T03:18:52.753Z,92587.57
2019-04-06T03:21:21.172Z,92587.57
2019-04-06T03:23:52.131Z,92595.28
2019-04-06T03:26:20.105Z,92577.56
2019-04-06T03:28:48.903Z,92575.81
2019-04-06T03:31:22.771Z,92550.84
2019-04-06T03:33:47.659Z,92550.84
2019-04-06T03:36:16.135Z,92572.59
2019-04-06T03:38:44.642Z,92576.28
2019-04-06T03:41:13.268Z,92578.88
2019-04-06T03:43:41.722Z,92569.52
2019-04-06T03:46:10.338Z,92573.06
2019-04-06T03:48:38.735Z,92564.36
2019-04-06T03:51:07.465Z,92561.46
2019-04-06T03:53:35.945Z,92559.54
2019-04-06T03:56:05.561Z,92558.27
2019-04-06T03:58:34.009Z,92557.28
2019-04-06T04:01:02.468Z,92552.44
2019-04-06T04:03:30.955Z,92552.93
2019-04-06T04:05:59.469Z,92545.38
2019-04-06T04:08:27.911Z,92545.20
2019-04-06T04:10:56.359Z,92545.20
2019-04-06T04:13:24.893Z,92541.34
2019-04-06T04:15:56.340Z,92543.42
2019-04-06T04:18:23.616Z,92543.09
2019-04-06T04:20:52.083Z,92543.09
2019-04-06T04:23:20.526Z,92546.64
2019-04-06T04:25:48.998Z,92544.38
2019-04-06T04:28:17.432Z,92542.14
2019-04-06T04:30:45.888Z,92557.92
2019-04-06T04:33:14.317Z,92536.97
2019-04-06T04:35:42.779Z,92547.94
2019-04-06T04:38:11.337Z,92548.40
2019-04-06T04:40:40.073Z,92538.23
2019-04-06T04:43:08.535Z,92561.91
2019-04-06T04:45:37.000Z,92561.77
2019-04-06T04:48:05.673Z,92568.50
2019-04-06T04:50:34.121Z,92569.16
2019-04-06T04:53:02.649Z,92569.81
2019-04-06T04:55:31.184Z,92577.84
2019-04-06T04:57:59.605Z,92570.77
2019-04-06T05:00:28.039Z,92579.94
2019-04-06T05:02:56.617Z,92581.70
2019-04-06T05:05:25.143Z,92580.12
2019-04-06T05:07:53.597Z,92586.55
2019-04-06T05:10:22.038Z,92586.55
2019-04-06T05:12:50.479Z,92582.06
2019-04-06T05:15:33.794Z,92582.06
2019-04-06T05:18:02.314Z,92578.34
2019-04-06T05:20:30.734Z,92576.25
2019-04-06T05:22:59.411Z,92578.52
2019-04-06T05:25:27.911Z,92584.98
2019-04-06T05:27:56.340Z,92584.98
2019-04-06T05:30:24.887Z,92563.70
2019-04-06T05:32:53.313Z,92556.91
2019-04-06T05:35:21.793Z,92556.91
2019-04-06T05:37:50.252Z,92577.63
2019-04-06T05:40:18.876Z,92583.80
2019-04-06T05:42:47.331Z,92582.76
2019-04-06T05:45:16.023Z,92585.64
2019-04-06T05:47:44.972Z,92585.13
2019-04-06T05:50:13.655Z,92585.34
2019-04-06T05:52:42.121Z,92590.02
2019-04-06T05:55:10.672Z,92589.51
2019-04-06T05:57:39.102Z,92583.27
2019-04-06T06:00:10.127Z,92593.47
2019-04-06T06:02:41.355Z,92592.60
2019-04-06T06:05:13.424Z,92584.47
2019-04-06T06:07:41.850Z,92584.64
2019-04-06T06:10:10.539Z,92592.77
2019-04-06T06:12:39.112Z,92596.53
2019-04-06T06:15:08.081Z,92588.11
2019-04-06T06:17:36.501Z,92589.86
2019-04-06T06:20:07.051Z,92582.74
2019-04-06T06:22:35.687Z,92584.80
2019-04-06T06:25:06.443Z,92585.00
2019-04-06T06:27:35.222Z,92587.48
2019-04-06T06:30:05.696Z,92582.20
2019-04-06T06:32:34.162Z,92584.02
2019-04-06T06:35:02.762Z,92591.56
2019-04-06T06:37:31.196Z,92590.62
2019-04-06T06:39:59.787Z,92591.72
2019-04-06T06:42:28.437Z,92593.33
2019-04-06T06:44:57.311Z,92583.61
2019-04-06T06:47:25.792Z,92590.55
2019-04-06T06:49:54.217Z,92586.05
2019-04-06T06:52:22.730Z,92588.27
2019-04-06T06:54:51.170Z,92576.34
2019-04-06T06:57:19.628Z,92580.45
2019-04-06T06:59:48.122Z,92572.63
2019-04-06T07:02:16.572Z,92573.48
2019-04-06T07:04:44.992Z,92571.06
2019-04-06T07:07:13.448Z,92576.56
2019-04-06T07:09:41.899Z,92575.98
2019-04-06T07:12:10.791Z,92572.71
2019-04-06T07:14:39.372Z,92573.33
2019-04-06T07:17:07.818Z,92575.16
2019-04-06T07:19:36.238Z,92564.89
2019-04-06T07:22:04.926Z,92564.78
2019-04-06T07:24:33.367Z,92571.84
2019-04-06T07:27:02.174Z,92569.06
2019-04-06T07:29:30.607Z,92572.42
2019-04-06T07:31:59.344Z,92580.73
2019-04-06T07:34:29.312Z,92573.66
2019-04-06T07:36:57.741Z,92580.86
2019-04-06T07:39:26.228Z,92576.33
2019-04-06T07:41:54.681Z,92573.00
2019-04-06T07:44:23.204Z,92575.26
2019-04-06T07:46:51.870Z,92580.20
2019-04-06T07:49:20.307Z,92568.38
2019-04-06T07:51:48.739Z,92568.69
2019-04-06T07:54:17.210Z,92564.77
2019-04-06T07:56:45.699Z,92558.34
2019-04-06T07:59:14.221Z,92558.52
2019-04-06T08:01:42.758Z,92560.16
2019-04-06T08:04:11.457Z,92556.69
2019-04-06T08:06:39.996Z,92554.25
2019-04-06T08:09:08.873Z,92559.64
2019-04-06T08:11:37.863Z,92556.34
2019-04-06T08:14:06.417Z,92558.94
2019-04-06T08:16:34.854Z,92552.82
2019-04-06T08:19:03.355Z,92546.05
2019-04-06T08:21:31.811Z,92548.01
2019-04-06T08:24:00.239Z,92548.09
2019-04-06T08:26:28.799Z,92543.94
2019-04-06T08:29:01.517Z,92544.48
2019-04-06T08:31:27.382Z,92542.22
2019-04-06T08:33:55.831Z,92539.30
2019-04-06T08:36:24.409Z,92537.67
2019-04-06T08:38:52.857Z,92542.12
2019-04-06T08:41:21.391Z,92539.73
2019-04-06T08:43:49.886Z,92537.05
2019-04-06T08:46:18.429Z,92534.86
2019-04-06T08:48:46.929Z,92532.77
2019-04-06T08:51:15.511Z,92531.27
2019-04-06T08:53:44.114Z,92534.16
2019-04-06T08:56:12.691Z,92531.37
2019-04-06T08:58:41.464Z,92529.81
2019-04-06T09:01:10.175Z,92530.27
2019-04-06T09:03:38.617Z,92528.05
2019-04-06T09:06:07.085Z,92527.20
2019-04-06T09:08:35.662Z,92523.53
2019-04-06T09:11:04.220Z,92524.99
2019-04-06T09:13:32.712Z,92517.82
2019-04-06T09:16:03.700Z,92519.86
2019-04-06T09:18:31.582Z,92504.59
2019-04-06T09:21:00.193Z,92506.95
2019-04-06T09:23:28.667Z,92494.52
2019-04-06T09:25:57.478Z,92499.38
2019-04-06T09:28:25.911Z,92494.92
2019-04-06T09:30:54.676Z,92484.45
2019-04-06T09:33:23.149Z,92492.55
2019-04-06T09:35:51.577Z,92481.92
2019-04-06T09:38:20.000Z,92491.06
2019-04-06T09:40:49.673Z,92477.03
2019-04-06T09:43:18.861Z,92487.48
2019-04-06T09:45:54.799Z,92488.84
2019-04-06T09:48:41.170Z,92485.80
2019-04-06T09:51:26.307Z,92487.84
2019-04-06T09:54:07.334Z,92476.78
2019-04-06T09:56:46.677Z,92481.41
2019-04-06T09:59:19.852Z,92471.78
2019-04-06T10:01:49.937Z,92473.55
2019-04-06T10:04:22.414Z,92467.67
2019-04-06T10:06:52.521Z,92464.86
2019-04-06T10:09:40.800Z,92470.60
2019-04-06T10:12:25.926Z,92467.97
2019-04-06T10:15:14.981Z,92467.16
2019-04-06T10:18:00.190Z,92467.73
2019-04-06T10:20:30.313Z,92469.19
2019-04-06T10:23:02.858Z,92474.91
2019-04-06T10:25:49.493Z,92477.33
2019-04-06T10:28:31.967Z,92475.09
2019-04-06T10:31:02.321Z,92473.39
2019-04-06T10:33:32.632Z,92479.53
2019-04-06T10:36:11.277Z,92472.43
2019-04-06T10:38:58.003Z,92472.34
2019-04-06T10:41:40.216Z,92468.63
2019-04-06T10:44:10.313Z,92466.02
2019-04-06T10:46:49.493Z,92470.22
2019-04-06T10:49:22.434Z,92466.19
2019-04-06T10:51:55.371Z,92465.74
2019-04-06T10:54:34.546Z,92474.81
2019-04-06T10:57:10.089Z,92471.55
2019-04-06T11:00:02.318Z,92480.67
2019-04-06T11:02:46.730Z,92473.34
2019-04-06T11:05:16.907Z,92469.23
2019-04-06T11:07:52.744Z,92469.33
2019-04-06T11:10:23.317Z,92473.50
2019-04-06T11:12:59.421Z,92470.55
2019-04-06T11:15:29.491Z,92470.84
2019-04-06T11:18:05.039Z,92471.22
2019-04-06T11:20:35.180Z,92475.86
2019-04-06T11:23:21.716Z,92472.87
2019-04-06T11:25:51.778Z,92471.23
2019-04-06T11:28:22.008Z,92478.67
2019-04-06T11:30:52.240Z,92475.61
2019-04-06T11:33:28.126Z,92474.70
2019-04-06T11:35:58.307Z,92477.73
2019-04-06T11:38:34.303Z,92479.09
2019-04-06T11:41:22.643Z,92474.42
2019-04-06T11:44:09.108Z,92471.27
2019-04-06T11:46:39.225Z,92458.72
2019-04-06T11:49:15.100Z,92457.19
2019-04-06T11:51:51.032Z,92454.47
2019-04-06T11:54:21.099Z,92462.67
2019-04-06T11:57:06.518Z,92457.53
2019-04-06T11:59:54.656Z,92463.61
2019-04-06T12:02:30.324Z,92455.58
2019-04-06T12:05:03.527Z,92446.55
2019-04-06T12:07:49.886Z,92450.91
2019-04-06T12:10:28.817Z,92444.14
2019-04-06T12:13:11.303Z,92436.30
2019-04-06T12:15:47.355Z,92431.42
2019-04-06T12:18:18.511Z,92441.42
2019-04-06T12:21:03.843Z,92439.33
2019-04-06T12:23:34.105Z,92432.91
2019-04-06T12:26:13.491Z,92428.54
2019-04-06T12:28:55.576Z,92426.55
2019-04-06T12:31:41.797Z,92437.11
2019-04-06T12:34:20.832Z,92440.30
2019-04-06T12:37:08.730Z,92429.64
2019-04-06T12:39:53.128Z,92439.12
2019-04-06T12:42:34.982Z,92438.13
2019-04-06T12:45:05.356Z,92428.95
2019-04-06T12:47:41.879Z,92432.66
2019-04-06T12:50:14.902Z,92426.34
2019-04-06T12:52:51.413Z,92429.56
2019-04-06T12:55:21.597Z,92444.94
2019-04-06T12:57:55.298Z,92437.70
2019-04-06T13:00:51.217Z,92437.70
2019-04-06T13:03:30.142Z,92432.77
2019-04-06T13:06:09.044Z,92432.58
2019-04-06T13:08:44.721Z,92444.91
2019-04-06T13:11:31.093Z,92441.09
2019-04-06T13:14:04.439Z,92427.31
2019-04-06T13:16:40.725Z,92430.42
2019-04-06T13:19:10.866Z,92432.47
2019-04-06T13:21:47.065Z,92425.55
2019-04-06T13:24:29.182Z,92432.48
2019-04-06T13:27:14.691Z,92437.00
2019-04-06T13:29:44.806Z,92431.14
2019-04-06T13:32:20.719Z,92431.14
2019-04-06T13:34:51.123Z,92423.36
2019-04-06T13:37:30.193Z,92433.16
2019-04-06T13:40:09.297Z,92433.11
2019-04-06T13:42:55.691Z,92426.77
2019-04-06T13:45:42.361Z,92435.55
2019-04-06T13:48:12.539Z,92441.91
2019-04-06T13:50:51.946Z,92451.84
2019-04-06T13:53:30.680Z,92444.37
2019-04-06T13:56:12.684Z,92448.89
2019-04-06T13:58:48.570Z,92443.42
2019-04-06T14:01:21.631Z,92443.81
2019-04-06T14:04:04.125Z,92445.41
2019-04-06T14:06:43.361Z,92435.97
2019-04-06T14:09:22.442Z,92441.68
2019-04-06T14:11:53.344Z,92432.47
2019-04-06T14:14:38.891Z,92433.27
2019-04-06T14:17:15.033Z,92429.10
2019-04-06T14:19:54.144Z,92418.73
2019-04-06T14:22:24.308Z,92417.83
2019-04-06T14:25:05.962Z,92413.80
2019-04-06T14:27:52.618Z,92411.28
2019-04-06T14:30:22.733Z,92413.34
2019-04-06T14:32:52.966Z,92413.47
2019-04-06T14:35:23.347Z,92411.11
2019-04-06T14:38:05.774Z,92404.02
2019-04-06T14:40:36.166Z,92408.20
2019-04-06T14:43:09.890Z,92408.27
2019-04-06T14:45:43.378Z,92408.87
2019-04-06T14:48:29.884Z,92410.91
2019-04-06T14:51:08.988Z,92409.98
2019-04-06T14:53:39.194Z,92412.55
2019-04-06T14:56:12.606Z,92407.34
2019-04-06T14:58:45.520Z,92406.95
2019-04-06T15:01:15.617Z,92403.56
2019-04-06T15:03:54.202Z,92405.34
2019-04-06T15:06:40.607Z,92406.38
2019-04-06T15:09:20.514Z,92405.89
2019-04-06T15:11:59.540Z,92405.74
2019-04-06T15:14:29.626Z,92408.59
2019-04-06T15:17:11.688Z,92409.27
2019-04-06T15:19:45.562Z,92402.52
2019-04-06T15:22:24.979Z,92405.00
2019-04-06T15:25:10.306Z,92401.48
2019-04-06T15:27:51.978Z,92401.40
2019-04-06T15:30:28.214Z,92401.27
2019-04-06T15:33:01.041Z,92401.94
2019-04-06T15:35:39.931Z,92410.03
2019-04-06T15:38:16.030Z,92413.03
2019-04-06T15:40:48.841Z,92403.91
2019-04-06T15:43:22.271Z,92412.83
2019-04-06T15:45:58.434Z,92414.17
2019-04-06T15:48:39.898Z,92409.70
2019-04-06T15:51:14.943Z,92407.69
2019-04-06T15:53:53.881Z,92409.69
2019-04-06T15:56:40.405Z,92403.48
2019-04-06T15:59:22.483Z,92410.85
2019-04-06T16:02:08.730Z,92404.05
2019-04-06T16:04:48.051Z,92406.83
2019-04-06T16:07:33.419Z,92406.19
2019-04-06T16:10:17.290Z,92406.58
2019-04-06T16:12:59.697Z,92408.36
2019-04-06T16:15:42.440Z,92392.74
2019-04-06T16:18:29.144Z,92397.27
2019-04-06T16:21:02.616Z,92394.64
2019-04-06T16:23:35.782Z,92392.58
2019-04-06T16:26:17.880Z,92388.73
2019-04-06T16:28:48.120Z,92395.91
2019-04-06T16:31:34.531Z,92399.02
2019-04-06T16:34:20.945Z,92397.77
2019-04-06T16:37:07.165Z,92403.08
2019-04-06T16:39:43.514Z,92409.45
2019-04-06T16:42:29.836Z,92407.97
2019-04-06T16:45:05.691Z,92406.55
2019-04-06T16:47:35.882Z,92408.51
2019-04-06T16:50:15.620Z,92414.88
2019-04-06T16:52:45.642Z,92412.59
2019-04-06T16:55:33.623Z,92411.95
2019-04-06T16:58:18.757Z,92407.26
2019-04-06T17:01:06.979Z,92406.45
2019-04-06T17:03:37.603Z,92411.88
2019-04-06T17:06:13.902Z,92413.62
2019-04-06T17:08:49.781Z,92414.95
2019-04-06T17:11:36.276Z,92413.92
2019-04-06T17:14:06.651Z,92416.38
2019-04-06T17:16:52.114Z,92414.27
2019-04-06T17:19:31.259Z,92414.03
2019-04-06T17:22:06.864Z,92410.55
2019-04-06T17:24:40.141Z,92406.43
2019-04-06T17:27:12.962Z,92411.61
2019-04-06T17:29:58.147Z,92412.67
2019-04-06T17:32:37.210Z,92421.77
2019-04-06T17:35:07.378Z,92423.17
2019-04-06T17:37:53.618Z,92424.11
2019-04-06T17:40:26.744Z,92430.66
2019-04-06T17:42:57.161Z,92428.96
2019-04-06T17:45:30.240Z,92431.11
2019-04-06T17:48:06.043Z,92429.25
2019-04-06T17:50:42.248Z,92433.48
2019-04-06T17:53:28.282Z,92431.17
2019-04-06T17:55:59.551Z,92432.53
2019-04-06T17:58:33.235Z,92430.42
2019-04-06T18:01:06.483Z,92434.83
2019-04-06T18:03:51.903Z,92444.34
2019-04-06T18:06:31.298Z,92450.05
2019-04-06T18:09:07.689Z,92450.26
2019-04-06T18:11:44.582Z,92442.83
2019-04-06T18:14:13.388Z,92451.34
2019-04-06T18:16:41.996Z,92453.95
2019-04-06T18:19:10.431Z,92451.66
2019-04-06T18:21:39.182Z,92453.13
2019-04-06T18:24:07.625Z,92457.61
2019-04-06T18:26:36.088Z,92452.16
2019-04-06T18:29:04.996Z,92460.45
2019-04-06T18:31:44.567Z,92463.12
2019-04-06T18:34:13.682Z,92469.87
2019-04-06T18:36:44.382Z,92476.52
2019-04-06T18:39:14.642Z,92473.69
2019-04-06T18:41:43.529Z,92477.05
2019-04-06T18:44:12.045Z,92487.08
2019-04-06T18:46:40.596Z,92482.21
2019-04-06T18:49:09.115Z,92484.59
2019-04-06T18:51:37.732Z,92481.13
2019-04-06T18:54:08.326Z,92475.75
2019-04-06T18:56:36.493Z,92479.95
2019-04-06T18:59:05.323Z,92479.80
2019-04-06T19:01:33.833Z,92480.45
2019-04-06T19:04:02.388Z,92481.64
2019-04-06T19:06:30.906Z,92485.23
2019-04-06T19:08:59.598Z,92491.48
2019-04-06T19:11:28.146Z,92496.11
2019-04-06T19:13:56.749Z,92491.58
2019-04-06T19:16:25.253Z,92499.98
2019-04-06T19:18:53.827Z,92493.78
2019-04-06T19:21:22.304Z,92490.70
2019-04-06T19:23:50.799Z,92493.31
2019-04-06T19:26:19.446Z,92494.83
2019-04-06T19:28:47.900Z,92490.20
2019-04-06T19:31:16.902Z,92493.55
2019-04-06T19:33:45.717Z,92494.13
2019-04-06T19:36:14.709Z,92493.48
2019-04-06T19:38:43.816Z,92492.30
2019-04-06T19:41:12.463Z,92489.82
2019-04-06T19:43:40.992Z,92496.33
2019-04-06T19:46:09.488Z,92489.10
2019-04-06T19:48:40.385Z,92487.72
2019-04-06T19:51:08.643Z,92490.52
2019-04-06T19:53:37.864Z,92489.55
2019-04-06T19:56:06.584Z,92485.81
2019-04-06T19:58:35.122Z,92484.41
2019-04-06T20:01:03.611Z,92479.59
2019-04-06T20:03:36.971Z,92485.60
2019-04-06T20:06:02.710Z,92492.75
2019-04-06T20:08:31.144Z,92489.08
2019-04-06T20:10:59.783Z,92486.44
2019-04-06T20:13:29.456Z,92481.45
2019-04-06T20:15:58.198Z,92479.85
2019-04-06T20:18:26.648Z,92487.47
2019-04-06T20:20:55.230Z,92485.25
2019-04-06T20:23:24.229Z,92484.06
2019-04-06T20:25:53.092Z,92488.66
2019-04-06T20:28:22.178Z,92486.85
2019-04-06T20:30:50.864Z,92479.84
2019-04-06T20:33:20.541Z,92480.23
2019-04-06T20:35:49.203Z,92474.56
2019-04-06T20:38:17.712Z,92476.67
2019-04-06T20:40:46.343Z,92476.67
2019-04-06T20:43:14.817Z,92473.64
2019-04-06T20:45:43.750Z,92465.91
2019-04-06T20:48:12.186Z,92465.81
2019-04-06T20:50:40.869Z,92465.89
2019-04-06T20:53:09.894Z,92458.81
2019-04-06T20:55:38.740Z,92457.58
2019-04-06T20:58:07.395Z,92455.20
2019-04-06T21:00:36.255Z,92455.39
2019-04-06T21:03:05.211Z,92457.02
2019-04-06T21:05:33.698Z,92456.83
2019-04-06T21:08:02.282Z,92455.41
2019-04-06T21:10:30.733Z,92453.72
2019-04-06T21:12:59.232Z,92451.92
2019-04-06T21:15:28.293Z,92454.64
2019-04-06T21:17:56.846Z,92454.14
2019-04-06T21:20:25.275Z,92458.88
2019-04-06T21:22:53.715Z,92456.98
2019-04-06T21:25:22.269Z,92454.97
2019-04-06T21:27:51.353Z,92459.48
2019-04-06T21:30:20.028Z,92459.18
2019-04-06T21:32:48.865Z,92462.04
2019-04-06T21:35:17.973Z,92460.00
2019-04-06T21:37:46.665Z,92463.45
2019-04-06T21:40:15.886Z,92469.64
2019-04-06T21:42:45.863Z,92467.93
2019-04-06T21:45:15.261Z,92469.38
2019-04-06T21:47:44.227Z,92464.84
2019-04-06T21:50:12.841Z,92469.66
2019-04-06T21:52:41.368Z,92461.23
2019-04-06T21:55:13.726Z,92469.89
2019-04-06T21:57:43.068Z,92466.20
2019-04-06T22:00:14.137Z,92465.13
2019-04-06T22:02:42.706Z,92459.62
2019-04-06T22:05:11.526Z,92463.49
2019-04-06T22:07:48.131Z,92462.47
2019-04-06T22:10:11.921Z,92472.36
2019-04-06T22:12:41.475Z,92464.77
2019-04-06T22:15:12.807Z,92466.38
2019-04-06T22:17:41.229Z,92469.50
2019-04-06T22:20:09.832Z,92469.81
2019-04-06T22:22:38.246Z,92470.90
2019-04-06T22:25:07.473Z,92469.08
2019-04-06T22:27:35.995Z,92467.41
2019-04-06T22:30:09.573Z,92465.52
2019-04-06T22:32:38.329Z,92463.78
2019-04-06T22:35:07.813Z,92465.86
2019-04-06T22:37:37.175Z,92466.11
2019-04-06T22:40:07.485Z,92457.53
2019-04-06T22:42:36.594Z,92460.02
2019-04-06T22:45:08.350Z,92463.94
2019-04-06T22:47:37.124Z,92459.55
2019-04-06T22:50:07.582Z,92468.37
2019-04-06T22:52:36.666Z,92457.50
2019-04-06T22:55:07.328Z,92462.64
2019-04-06T22:57:36.103Z,92459.39
2019-04-06T23:00:08.236Z,92459.33
2019-04-06T23:02:44.195Z,92456.91
2019-04-06T23:05:29.540Z,92463.31
2019-04-06T23:07:58.739Z,92459.62
2019-04-06T23:10:27.728Z,92459.44
2019-04-06T23:12:56.459Z,92465.18
2019-04-06T23:15:25.474Z,92470.67
2019-04-06T23:17:54.393Z,92467.85
2019-04-06T23:20:22.915Z,92464.55
2019-04-06T23:22:51.520Z,92463.61
2019-04-06T23:25:19.950Z,92469.83
2019-04-06T23:27:48.515Z,92467.23
2019-04-06T23:30:18.111Z,92466.70
2019-04-06T23:32:46.692Z,92463.52
2019-04-06T23:35:15.258Z,92465.04
2019-04-06T23:37:43.761Z,92466.06
2019-04-06T23:40:12.356Z,92464.48
2019-04-06T23:42:40.783Z,92460.20
2019-04-06T23:45:09.229Z,92461.41
2019-04-06T23:47:37.765Z,92465.40
2019-04-06T23:50:07.631Z,92466.06
2019-04-06T23:52:36.488Z,92465.40
2019-04-06T23:55:07.515Z,92465.54
2019-04-06T23:57:36.093Z,92459.98
